createdAt,value
2022-10-17T00:02:19.393Z,1.50
2022-10-17T00:07:22.453Z,1.97
2022-10-17T00:12:24.996Z,1.57
2022-10-17T00:17:26.907Z,1.60
2022-10-17T00:22:30.288Z,2.00
2022-10-17T00:27:34.903Z,1.77
2022-10-17T00:32:36.617Z,2.00
2022-10-17T00:37:39.987Z,2.10
2022-10-17T00:42:41.953Z,1.80
2022-10-17T00:47:48.661Z,1.70
2022-10-17T00:52:52.481Z,2.07
2022-10-17T00:57:54.141Z,1.90
2022-10-17T01:02:56.207Z,1.90
2022-10-17T01:07:59.865Z,1.73
2022-10-17T01:13:11.874Z,1.63
2022-10-17T01:18:26.495Z,1.60
2022-10-17T01:24:01.270Z,1.67
2022-10-17T01:29:27.207Z,1.40
2022-10-17T01:34:34.317Z,1.70
2022-10-17T01:39:45.427Z,1.63
2022-10-17T01:44:55.328Z,1.40
2022-10-17T01:50:02.579Z,1.60
2022-10-17T01:55:08.034Z,1.87
2022-10-17T02:00:14.450Z,1.50
2022-10-17T02:05:20.745Z,1.70
2022-10-17T02:10:31.215Z,1.63
2022-10-17T02:15:51.951Z,1.80
2022-10-17T02:21:00.516Z,2.00
2022-10-17T02:26:09.975Z,2.27
2022-10-17T02:31:16.998Z,2.30
2022-10-17T02:36:23.736Z,2.10
2022-10-17T02:41:26.442Z,2.00
2022-10-17T02:46:29.347Z,2.30
2022-10-17T02:51:39.915Z,2.03
2022-10-17T02:56:46.680Z,2.07
2022-10-17T03:01:50.560Z,2.00
2022-10-17T03:06:54.076Z,2.10
2022-10-17T03:11:56.213Z,2.10
2022-10-17T03:16:58.303Z,2.30
2022-10-17T03:22:01.664Z,2.30
2022-10-17T03:27:04.037Z,2.40
2022-10-17T03:32:06.353Z,2.57
2022-10-17T03:37:09.696Z,2.07
2022-10-17T03:42:11.712Z,2.33
2022-10-17T03:47:14.277Z,2.40
2022-10-17T03:52:17.416Z,2.40
2022-10-17T03:57:19.809Z,2.57
2022-10-17T04:02:21.781Z,2.70
2022-10-17T04:12:27.007Z,2.13
2022-10-17T04:17:32.379Z,2.70
2022-10-17T04:22:39.420Z,2.67
2022-10-17T04:27:41.866Z,2.33
2022-10-17T04:32:43.559Z,3.20
2022-10-17T04:37:46.800Z,2.83
2022-10-17T04:42:49.113Z,3.00
2022-10-17T04:47:51.118Z,2.47
2022-10-17T04:52:54.407Z,3.00
2022-10-17T04:57:56.427Z,2.50
2022-10-17T05:02:58.325Z,2.50
2022-10-17T05:08:01.692Z,2.83
2022-10-17T05:13:03.895Z,2.80
2022-10-17T05:18:07.319Z,2.80
2022-10-17T05:23:10.844Z,3.63
2022-10-17T05:28:12.939Z,2.87
2022-10-17T05:33:14.923Z,3.13
2022-10-17T05:38:18.263Z,2.97
2022-10-17T05:43:20.312Z,2.87
2022-10-17T05:48:22.961Z,3.40
2022-10-17T05:53:26.309Z,3.10
2022-10-17T06:03:50.731Z,3.23
2022-10-17T06:08:53.816Z,4.90
2022-10-17T06:13:55.877Z,5.70
2022-10-17T06:18:57.507Z,6.30
2022-10-17T06:24:01.020Z,6.37
2022-10-17T06:29:03.211Z,6.73
2022-10-17T06:34:05.112Z,6.53
2022-10-17T06:39:08.742Z,6.70
2022-10-17T06:44:10.824Z,6.20
2022-10-17T06:49:13.144Z,6.83
2022-10-17T06:54:16.668Z,6.80
2022-10-17T06:59:18.667Z,7.17
2022-10-17T07:04:20.467Z,6.50
2022-10-17T07:09:23.650Z,6.50
2022-10-17T07:14:26.091Z,6.07
2022-10-17T07:19:28.137Z,5.87
2022-10-17T07:24:31.519Z,5.97
2022-10-17T07:29:33.814Z,5.87
2022-10-17T07:34:36.015Z,6.27
2022-10-17T07:39:39.664Z,4.77
2022-10-17T07:44:41.887Z,4.70
2022-10-17T07:49:43.912Z,4.43
2022-10-17T07:54:46.889Z,3.60
2022-10-17T07:59:49.122Z,3.43
2022-10-17T08:04:51.083Z,2.57
2022-10-17T08:09:54.403Z,2.77
2022-10-17T08:14:57.329Z,2.10
2022-10-17T08:19:59.701Z,2.47
2022-10-17T08:25:03.291Z,2.20
2022-10-17T08:30:06.854Z,2.37
2022-10-17T08:35:09.144Z,2.10
2022-10-17T08:40:21.491Z,2.13
2022-10-17T08:45:33.237Z,1.77
2022-10-17T08:50:37.960Z,2.20
2022-10-17T08:55:45.684Z,2.07
2022-10-17T09:00:56.320Z,2.23
2022-10-17T09:06:12.653Z,1.90
2022-10-17T09:11:27.884Z,1.47
2022-10-17T09:16:54.996Z,1.83
2022-10-17T09:22:00.557Z,1.50
2022-10-17T09:27:04.558Z,1.93
2022-10-17T09:32:14.120Z,1.47
2022-10-17T09:37:17.521Z,2.00
2022-10-17T09:42:24.917Z,1.77
2022-10-17T09:47:34.522Z,2.07
2022-10-17T09:52:42.444Z,1.70
2022-10-17T09:57:57.731Z,1.60
2022-10-17T10:03:15.213Z,1.63
2022-10-17T10:08:19.794Z,1.52
2022-10-17T10:13:26.645Z,1.60
2022-10-17T10:18:32.578Z,1.85
2022-10-17T10:23:35.336Z,1.60
2022-10-17T10:28:38.943Z,1.50
2022-10-17T10:33:46.999Z,1.40
2022-10-17T10:38:55.032Z,1.67
2022-10-17T10:43:58.448Z,1.40
2022-10-17T10:49:02.612Z,1.65
2022-10-17T10:54:11.998Z,1.20
2022-10-17T10:59:20.952Z,1.50
2022-10-17T11:04:31.777Z,1.77
2022-10-17T11:09:45.091Z,1.38
2022-10-17T11:14:54.075Z,1.20
2022-10-17T11:20:09.859Z,1.33
2022-10-17T11:25:22.423Z,1.50
2022-10-17T11:30:33.580Z,1.65
2022-10-17T11:35:40.873Z,1.58
2022-10-17T11:40:45.882Z,1.20
2022-10-17T11:45:53.202Z,1.50
2022-10-17T11:56:34.841Z,1.45
2022-10-17T12:01:44.083Z,1.38
2022-10-17T12:06:56.957Z,1.50
2022-10-17T12:12:02.458Z,1.17
2022-10-17T12:17:20.946Z,1.30
2022-10-17T12:22:26.037Z,1.60
2022-10-17T12:27:36.082Z,1.40
2022-10-17T12:33:05.542Z,1.80
2022-10-17T12:38:24.664Z,1.40
2022-10-17T12:43:46.948Z,1.25
2022-10-17T12:49:05.036Z,0.93
2022-10-17T12:54:12.780Z,1.13
2022-10-17T12:59:17.875Z,1.42
2022-10-17T13:04:21.773Z,1.25
2022-10-17T13:09:27.354Z,1.20
2022-10-17T13:14:31.806Z,1.10
2022-10-17T13:19:43.148Z,1.35
2022-10-17T13:24:45.519Z,1.33
2022-10-17T13:29:47.250Z,1.20
2022-10-17T13:35:10.789Z,1.10
2022-10-17T13:40:44.181Z,1.50
2022-10-17T13:45:45.864Z,1.15
2022-10-17T13:50:51.831Z,1.17
2022-10-17T13:56:15.696Z,1.10
2022-10-17T14:01:21.602Z,1.17
2022-10-17T14:06:26.436Z,1.42
2022-10-17T14:11:33.895Z,1.50
2022-10-17T14:16:39.278Z,1.33
2022-10-17T14:21:44.706Z,1.30
2022-10-17T14:26:47.999Z,1.13
2022-10-17T14:31:50.492Z,1.30
2022-10-17T14:36:54.940Z,1.10
2022-10-17T14:42:00.748Z,1.38
2022-10-17T14:47:42.198Z,1.70
2022-10-17T14:52:32.476Z,1.25
2022-10-17T14:57:43.148Z,1.33
2022-10-17T15:02:45.822Z,1.25
2022-10-17T15:07:49.475Z,1.27
2022-10-17T15:12:58.780Z,1.70
2022-10-17T15:18:02.501Z,1.70
2022-10-17T15:23:05.860Z,1.45
2022-10-17T15:28:07.835Z,1.40
2022-10-17T15:33:09.767Z,1.40
2022-10-17T15:38:18.258Z,1.45
2022-10-17T15:43:20.410Z,3.72
2022-10-17T15:48:28.342Z,1.40
2022-10-17T15:53:31.850Z,1.20
2022-10-17T15:58:37.411Z,1.40
2022-10-17T16:03:39.976Z,1.30
2022-10-17T16:08:43.336Z,1.50
2022-10-17T16:13:51.088Z,1.27
2022-10-17T16:18:53.215Z,1.45
2022-10-17T16:23:57.215Z,1.25
2022-10-17T16:28:59.473Z,1.60
2022-10-17T16:34:03.480Z,1.50
2022-10-17T16:39:06.956Z,1.70
2022-10-17T16:44:12.427Z,1.40
2022-10-17T16:49:14.478Z,2.10
2022-10-17T16:54:18.136Z,1.60
2022-10-17T16:59:20.207Z,1.42
2022-10-17T17:04:22.616Z,1.67
2022-10-17T17:09:26.241Z,1.40
2022-10-17T17:14:28.549Z,1.67
2022-10-17T17:19:30.293Z,1.43
2022-10-17T17:24:33.767Z,1.60
2022-10-17T17:29:35.549Z,1.33
2022-10-17T17:34:37.707Z,1.43
2022-10-17T17:39:41.098Z,1.80
2022-10-17T17:44:43.358Z,3.10
2022-10-17T17:49:45.476Z,2.83
2022-10-17T17:54:48.783Z,2.80
2022-10-17T17:59:50.720Z,2.43
2022-10-17T18:04:52.554Z,2.20
2022-10-17T18:09:55.726Z,2.77
2022-10-17T18:14:57.423Z,2.77
2022-10-17T18:19:59.094Z,2.70
2022-10-17T18:25:02.342Z,2.20
2022-10-17T18:30:04.875Z,2.20
2022-10-17T18:35:07.383Z,2.20
2022-10-17T18:40:11.393Z,2.70
2022-10-17T18:45:13.389Z,2.27
2022-10-17T18:50:15.459Z,2.70
2022-10-17T18:55:19.146Z,2.63
2022-10-17T19:00:21.088Z,3.60
2022-10-17T19:05:23.112Z,3.27
2022-10-17T19:10:26.353Z,2.30
2022-10-17T19:15:28.401Z,2.70
2022-10-17T19:20:30.611Z,2.83
2022-10-17T19:25:34.739Z,2.33
2022-10-17T19:30:36.449Z,2.40
2022-10-17T19:35:38.279Z,1.87
2022-10-17T19:40:41.878Z,2.00
2022-10-17T19:45:43.842Z,2.20
2022-10-17T19:50:45.522Z,2.00
2022-10-17T19:55:48.502Z,2.53
2022-10-17T20:00:52.194Z,2.93
2022-10-17T20:05:54.727Z,2.30
2022-10-17T20:11:02.408Z,2.30
2022-10-17T20:16:06.184Z,2.10
2022-10-17T20:21:09.743Z,2.30
2022-10-17T20:31:37.530Z,2.23
2022-10-17T20:36:39.414Z,2.30
2022-10-17T20:41:43.756Z,2.30
2022-10-17T20:47:00.807Z,2.20
2022-10-17T20:52:04.051Z,2.07
2022-10-17T20:57:07.327Z,2.83
2022-10-17T21:02:11.994Z,2.73
2022-10-17T21:07:13.941Z,2.87
2022-10-17T21:12:25.978Z,3.07
2022-10-17T21:17:39.100Z,2.80
2022-10-17T21:22:40.719Z,2.53
2022-10-17T21:27:43.760Z,3.43
2022-10-17T21:32:53.862Z,2.70
2022-10-17T21:37:56.058Z,2.60
2022-10-17T21:42:59.134Z,3.13
2022-10-17T21:48:12.643Z,2.13
2022-10-17T21:53:15.629Z,2.70
2022-10-17T21:58:19.852Z,3.10
2022-10-17T22:03:21.684Z,2.97
2022-10-17T22:08:23.464Z,2.60
2022-10-17T22:13:26.647Z,2.80
2022-10-17T22:18:28.787Z,2.47
2022-10-17T22:23:30.977Z,2.70
2022-10-17T22:28:34.788Z,2.73
2022-10-17T22:33:38.048Z,3.30
2022-10-17T22:38:40.199Z,2.67
2022-10-17T22:43:43.710Z,3.20
2022-10-17T22:48:46.016Z,2.67
2022-10-17T22:53:47.970Z,2.20
2022-10-17T22:58:52.109Z,3.37
2022-10-17T23:03:54.130Z,3.50
2022-10-17T23:08:56.207Z,2.87
2022-10-17T23:13:59.161Z,2.60
2022-10-17T23:19:01.261Z,3.23
2022-10-17T23:24:02.909Z,2.67
2022-10-17T23:29:06.027Z,2.93
2022-10-17T23:34:08.229Z,3.13
2022-10-17T23:39:11.600Z,3.10
2022-10-17T23:44:15.236Z,2.87
2022-10-17T23:49:17.158Z,2.70
2022-10-17T23:54:19.172Z,3.37
2022-10-17T23:59:22.716Z,3.00
